createdAt,value
2023-01-17T00:04:41.996Z,98410
2023-01-17T00:09:41.998Z,98420
2023-01-17T00:14:41.987Z,98420
2023-01-17T00:19:42.018Z,98420
2023-01-17T00:24:42.001Z,98430
2023-01-17T00:29:42.008Z,98430
2023-01-17T00:34:42.001Z,98440
2023-01-17T00:39:42.010Z,98460
2023-01-17T00:44:42.001Z,98470
2023-01-17T00:49:42.025Z,98470
2023-01-17T00:54:42.019Z,98480
2023-01-17T00:59:42.028Z,98490
2023-01-17T01:04:42.019Z,98500
2023-01-17T01:09:42.012Z,98520
2023-01-17T01:14:42.024Z,98530
2023-01-17T01:19:42.051Z,98530
2023-01-17T01:24:42.027Z,98540
2023-01-17T01:29:42.034Z,98560
2023-01-17T01:34:42.028Z,98560
2023-01-17T01:39:42.039Z,98570
2023-01-17T01:44:42.040Z,98570
2023-01-17T01:49:42.065Z,98580
2023-01-17T01:54:42.046Z,98590
2023-01-17T01:59:42.095Z,98600
2023-01-17T02:04:42.051Z,98620
2023-01-17T02:09:42.062Z,98630
2023-01-17T02:14:42.063Z,98630
2023-01-17T02:19:42.096Z,98650
2023-01-17T02:24:42.092Z,98650
2023-01-17T02:29:42.126Z,98650
2023-01-17T02:34:42.068Z,98660
2023-01-17T02:39:42.076Z,98670
2023-01-17T02:44:42.080Z,98680
2023-01-17T02:49:42.093Z,98690
2023-01-17T02:54:42.085Z,98690
2023-01-17T02:59:42.080Z,98710
2023-01-17T03:04:42.101Z,98720
2023-01-17T03:09:42.088Z,98730
2023-01-17T03:14:42.119Z,98730
2023-01-17T03:19:42.130Z,98730
2023-01-17T03:24:42.107Z,98740
2023-01-17T03:29:42.116Z,98740
2023-01-17T03:34:42.117Z,98740
2023-01-17T03:39:42.099Z,98750
2023-01-17T03:44:42.109Z,98760
2023-01-17T03:49:42.136Z,98760
2023-01-17T03:54:42.111Z,98760
2023-01-17T03:59:42.115Z,98760
2023-01-17T04:04:42.185Z,98760
2023-01-17T04:09:42.113Z,98770
2023-01-17T04:14:42.124Z,98780
2023-01-17T04:19:42.148Z,98780
2023-01-17T04:24:42.132Z,98800
2023-01-17T04:29:42.137Z,98810
2023-01-17T04:34:42.172Z,98820
2023-01-17T04:39:42.136Z,98810
2023-01-17T04:44:42.137Z,98810
2023-01-17T04:49:44.033Z,98810
2023-01-17T04:54:42.140Z,98800
2023-01-17T04:59:42.143Z,98800
2023-01-17T05:04:42.191Z,98800
2023-01-17T05:09:42.151Z,98800
2023-01-17T05:14:42.158Z,98810
2023-01-17T05:19:42.167Z,98820
2023-01-17T05:24:42.167Z,98830
2023-01-17T05:29:42.172Z,98830
2023-01-17T05:34:42.170Z,98830
2023-01-17T05:39:42.175Z,98840
2023-01-17T05:44:42.194Z,98840
2023-01-17T05:49:44.440Z,98840
2023-01-17T05:54:42.181Z,98850
2023-01-17T05:59:42.172Z,98860
2023-01-17T06:04:42.317Z,98870
2023-01-17T06:09:42.185Z,98860
2023-01-17T06:14:42.181Z,98870
2023-01-17T06:19:42.222Z,98870
2023-01-17T06:24:42.190Z,98880
2023-01-17T06:29:42.200Z,98880
2023-01-17T06:34:42.198Z,98890
2023-01-17T06:39:42.201Z,98890
2023-01-17T06:44:42.203Z,98890
2023-01-17T06:49:42.222Z,98890
2023-01-17T06:54:42.213Z,98890
2023-01-17T06:59:42.214Z,98910
2023-01-17T07:04:42.215Z,98920
2023-01-17T07:09:42.214Z,98920
2023-01-17T07:14:42.220Z,98920
2023-01-17T07:19:42.230Z,98920
2023-01-17T07:24:42.217Z,98920
2023-01-17T07:29:42.221Z,98930
2023-01-17T07:34:42.245Z,98930
2023-01-17T07:39:42.243Z,98940
2023-01-17T07:44:42.233Z,98930
2023-01-17T07:49:42.259Z,98930
2023-01-17T07:54:42.238Z,98920
2023-01-17T07:59:42.239Z,98920
2023-01-17T08:04:42.262Z,98920
2023-01-17T08:09:42.269Z,98920
2023-01-17T08:14:42.248Z,98920
2023-01-17T08:19:42.265Z,98930
2023-01-17T08:24:42.278Z,98940
2023-01-17T08:29:42.265Z,98940
2023-01-17T08:34:42.280Z,98940
2023-01-17T08:39:42.274Z,98940
2023-01-17T08:44:42.270Z,98940
2023-01-17T08:49:42.289Z,98940
2023-01-17T08:54:42.274Z,98940
2023-01-17T08:59:42.270Z,98950
2023-01-17T09:04:42.344Z,98960
2023-01-17T09:09:42.272Z,98960
2023-01-17T09:14:42.331Z,98950
2023-01-17T09:19:42.447Z,98960
2023-01-17T09:24:42.291Z,98970
2023-01-17T09:29:42.300Z,98970
2023-01-17T09:34:42.295Z,98970
2023-01-17T09:39:42.292Z,98980
2023-01-17T09:44:42.314Z,98990
2023-01-17T09:49:42.318Z,98990
2023-01-17T09:54:42.319Z,99010
2023-01-17T09:59:45.397Z,99000
2023-01-17T10:04:42.325Z,99010
2023-01-17T10:09:42.311Z,99010
2023-01-17T10:14:42.312Z,99020
2023-01-17T10:19:42.338Z,99020
2023-01-17T10:24:42.319Z,99020
2023-01-17T10:29:42.319Z,99030
2023-01-17T10:34:42.320Z,99030
2023-01-17T10:39:42.336Z,99030
2023-01-17T10:44:42.367Z,99040
2023-01-17T10:49:42.346Z,99040
2023-01-17T10:54:42.343Z,99030
2023-01-17T10:59:42.335Z,99030
2023-01-17T11:04:42.347Z,99030
2023-01-17T11:09:42.352Z,99020
2023-01-17T11:14:42.344Z,99020
2023-01-17T11:19:42.368Z,99030
2023-01-17T11:24:42.342Z,99030
2023-01-17T11:29:42.370Z,99020
2023-01-17T11:34:42.369Z,99020
2023-01-17T11:39:43.635Z,99010
2023-01-17T11:44:42.367Z,99020
2023-01-17T11:49:42.402Z,99020
2023-01-17T11:54:42.408Z,99020
2023-01-17T11:59:42.368Z,99020
2023-01-17T12:04:42.431Z,99020
2023-01-17T12:09:42.367Z,99020
2023-01-17T12:14:42.380Z,99020
2023-01-17T12:19:42.399Z,99020
2023-01-17T12:24:42.383Z,99010
2023-01-17T12:29:42.383Z,99010
2023-01-17T12:34:42.394Z,99010
2023-01-17T12:39:42.394Z,99010
2023-01-17T12:44:42.388Z,99010
2023-01-17T12:49:42.413Z,99000
2023-01-17T12:54:42.409Z,99000
2023-01-17T12:59:42.392Z,99000
2023-01-17T13:04:57.778Z,99000
2023-01-17T13:09:42.403Z,99000
2023-01-17T13:14:42.404Z,99000
2023-01-17T13:19:42.510Z,99000
2023-01-17T13:24:42.438Z,99000
2023-01-17T13:29:42.412Z,98990
2023-01-17T13:34:42.425Z,98990
2023-01-17T13:39:42.427Z,98990
2023-01-17T13:44:42.420Z,99000
2023-01-17T13:49:42.443Z,99010
2023-01-17T13:54:42.435Z,99000
2023-01-17T13:59:42.428Z,99010
2023-01-17T14:04:42.448Z,99010
2023-01-17T14:09:42.464Z,99010
2023-01-17T14:14:42.441Z,99010
2023-01-17T14:19:42.475Z,99020
2023-01-17T14:24:42.439Z,99030
2023-01-17T14:29:42.460Z,99020
2023-01-17T14:34:42.459Z,99020
2023-01-17T14:39:42.454Z,99020
2023-01-17T14:44:42.456Z,99030
2023-01-17T14:49:42.480Z,99040
2023-01-17T14:54:42.460Z,99040
2023-01-17T14:59:42.459Z,99030
2023-01-17T15:04:42.471Z,99030
2023-01-17T15:09:42.476Z,99040
2023-01-17T15:14:42.474Z,99040
2023-01-17T15:19:42.490Z,99040
2023-01-17T15:24:42.475Z,99040
2023-01-17T15:29:42.473Z,99040
2023-01-17T15:34:42.503Z,99050
2023-01-17T15:39:42.484Z,99060
2023-01-17T15:44:48.622Z,99060
2023-01-17T15:49:42.513Z,99060
2023-01-17T15:54:42.497Z,99070
2023-01-17T15:59:42.498Z,99070
2023-01-17T16:04:42.510Z,99070
2023-01-17T16:09:42.503Z,99060
2023-01-17T16:15:02.499Z,99060
2023-01-17T16:19:42.516Z,99060
2023-01-17T16:24:42.503Z,99060
2023-01-17T16:29:42.514Z,99060
2023-01-17T16:34:42.519Z,99070
2023-01-17T16:39:42.532Z,99070
2023-01-17T16:44:42.517Z,99070
2023-01-17T16:49:42.550Z,99080
2023-01-17T16:54:42.530Z,99080
2023-01-17T16:59:50.352Z,99090
2023-01-17T17:04:42.541Z,99090
2023-01-17T17:09:42.527Z,99100
2023-01-17T17:14:42.541Z,99110
2023-01-17T17:19:42.556Z,99120
2023-01-17T17:24:42.535Z,99120
2023-01-17T17:29:42.543Z,99120
2023-01-17T17:34:42.554Z,99130
2023-01-17T17:39:42.544Z,99140
2023-01-17T17:44:42.558Z,99140
2023-01-17T17:49:42.575Z,99150
2023-01-17T17:54:42.548Z,99160
2023-01-17T17:59:42.557Z,99170
2023-01-17T18:04:42.684Z,99170
2023-01-17T18:09:42.562Z,99180
2023-01-17T18:14:42.565Z,99190
2023-01-17T18:19:42.616Z,99200
2023-01-17T18:24:42.571Z,99200
2023-01-17T18:29:42.579Z,99200
2023-01-17T18:34:42.585Z,99210
2023-01-17T18:39:42.574Z,99220
2023-01-17T18:44:42.593Z,99220
2023-01-17T18:49:42.608Z,99230
2023-01-17T18:54:42.595Z,99230
2023-01-17T18:59:42.586Z,99230
2023-01-17T19:04:42.603Z,99240
2023-01-17T19:09:42.593Z,99240
2023-01-17T19:14:42.595Z,99240
2023-01-17T19:19:42.616Z,99240
2023-01-17T19:24:42.606Z,99250
2023-01-17T19:29:42.610Z,99250
2023-01-17T19:34:42.649Z,99250
2023-01-17T19:39:42.614Z,99260
2023-01-17T19:44:42.616Z,99260
2023-01-17T19:49:42.647Z,99260
2023-01-17T19:54:42.623Z,99270
2023-01-17T19:59:42.622Z,99270
2023-01-17T20:04:42.630Z,99280
2023-01-17T20:09:42.652Z,99270
2023-01-17T20:14:42.628Z,99270
2023-01-17T20:19:42.682Z,99270
2023-01-17T20:24:42.627Z,99270
2023-01-17T20:29:42.640Z,99280
2023-01-17T20:34:45.343Z,99270
2023-01-17T20:39:42.652Z,99270
2023-01-17T20:44:42.650Z,99270
2023-01-17T20:49:42.706Z,99280
2023-01-17T20:54:42.661Z,99270
2023-01-17T20:59:42.650Z,99270
2023-01-17T21:04:42.657Z,99270
2023-01-17T21:09:42.654Z,99270
2023-01-17T21:14:42.675Z,99280
2023-01-17T21:19:42.684Z,99280
2023-01-17T21:24:42.668Z,99290
2023-01-17T21:29:42.673Z,99290
2023-01-17T21:34:42.678Z,99290
2023-01-17T21:39:42.677Z,99300
2023-01-17T21:44:42.673Z,99300
2023-01-17T21:49:42.704Z,99300
2023-01-17T21:54:42.683Z,99300
2023-01-17T21:59:42.678Z,99300
2023-01-17T22:04:42.695Z,99300
2023-01-17T22:09:42.693Z,99300
2023-01-17T22:14:42.701Z,99300
2023-01-17T22:19:42.716Z,99300
2023-01-17T22:24:42.695Z,99300
2023-01-17T22:29:42.707Z,99300
2023-01-17T22:34:42.709Z,99310
2023-01-17T22:39:42.706Z,99320
2023-01-17T22:44:42.705Z,99320
2023-01-17T22:49:42.736Z,99320
2023-01-17T22:54:42.713Z,99320
2023-01-17T22:59:42.729Z,99320
2023-01-17T23:04:42.731Z,99320
2023-01-17T23:09:42.723Z,99320
2023-01-17T23:14:42.729Z,99320
2023-01-17T23:19:42.802Z,99320
2023-01-17T23:24:42.723Z,99320
2023-01-17T23:29:42.731Z,99330
2023-01-17T23:34:42.741Z,99330
2023-01-17T23:39:42.739Z,99340
2023-01-17T23:44:42.750Z,99340
2023-01-17T23:49:42.817Z,99330
2023-01-17T23:54:42.750Z,99340
2023-01-17T23:59:42.742Z,99340
